createdAt,value
2022-08-22T00:02:23.819Z,82.06
2022-08-22T00:02:43.552Z,64.14
2022-08-22T00:02:47.157Z,74.81
2022-08-22T00:02:49.197Z,64.41
2022-08-22T00:05:27.303Z,81.70
2022-08-22T00:08:16.383Z,82.23
2022-08-22T00:11:03.602Z,81.85
2022-08-22T00:14:01.177Z,80.62
2022-08-22T00:16:33.849Z,81.11
2022-08-22T00:19:23.359Z,80.99
2022-08-22T00:22:12.437Z,81.40
2022-08-22T00:25:22.807Z,81.14
2022-08-22T00:28:11.522Z,81.05
2022-08-22T00:31:07.969Z,81.11
2022-08-22T00:33:51.642Z,80.70
2022-08-22T00:36:47.931Z,81.08
2022-08-22T00:39:29.846Z,81.37
2022-08-22T00:42:35.314Z,82.54
2022-08-22T00:45:25.719Z,83.10
2022-08-22T00:48:32.905Z,82.65
2022-08-22T00:51:41.011Z,81.77
2022-08-22T00:54:35.072Z,82.17
2022-08-22T00:57:45.082Z,81.65
2022-08-22T01:00:28.714Z,82.22
2022-08-22T01:03:40.773Z,82.39
2022-08-22T01:06:45.723Z,82.73
2022-08-22T01:09:37.636Z,83.29
2022-08-22T01:12:23.830Z,83.40
2022-08-22T01:15:10.240Z,82.52
2022-08-22T01:18:35.665Z,82.71
2022-08-22T01:22:02.781Z,82.35
2022-08-22T01:25:26.293Z,83.57
2022-08-22T01:28:31.653Z,84.27
2022-08-22T01:31:22.355Z,84.71
2022-08-22T01:34:02.872Z,84.76
2022-08-22T01:37:10.311Z,84.59
2022-08-22T01:40:27.900Z,84.55
2022-08-22T01:43:19.178Z,84.70
2022-08-22T01:46:13.293Z,84.88
2022-08-22T01:48:58.409Z,85.02
2022-08-22T01:51:43.265Z,85.13
2022-08-22T01:54:36.364Z,84.90
2022-08-22T01:57:08.788Z,84.27
2022-08-22T01:59:46.824Z,84.23
2022-08-22T02:02:32.779Z,84.57
2022-08-22T02:05:13.343Z,85.27
2022-08-22T02:08:02.978Z,85.13
2022-08-22T02:10:52.657Z,85.64
2022-08-22T02:13:42.723Z,85.24
2022-08-22T02:16:31.276Z,85.16
2022-08-22T02:19:14.669Z,85.09
2022-08-22T02:22:04.678Z,85.00
2022-08-22T02:25:08.767Z,84.68
2022-08-22T02:27:58.482Z,85.50
2022-08-22T02:30:47.088Z,85.65
2022-08-22T02:33:49.432Z,86.00
2022-08-22T02:36:53.978Z,85.42
2022-08-22T02:39:42.632Z,85.10
2022-08-22T02:42:16.738Z,84.87
2022-08-22T02:45:11.977Z,84.64
2022-08-22T02:48:06.673Z,85.03
2022-08-22T02:51:02.120Z,85.47
2022-08-22T02:53:46.487Z,85.82
2022-08-22T02:56:46.065Z,86.40
2022-08-22T02:59:37.723Z,86.32
2022-08-22T03:03:01.592Z,85.65
2022-08-22T03:05:52.176Z,85.67
2022-08-22T03:08:29.660Z,86.43
2022-08-22T03:11:28.172Z,87.39
2022-08-22T03:14:44.857Z,87.73
2022-08-22T03:17:31.837Z,87.15
2022-08-22T03:20:40.521Z,86.24
2022-08-22T03:23:31.481Z,88.87
2022-08-22T03:26:15.832Z,89.31
2022-08-22T03:28:59.283Z,90.12
2022-08-22T03:31:32.325Z,90.58
2022-08-22T03:34:22.558Z,90.03
2022-08-22T03:37:15.337Z,89.17
2022-08-22T03:40:08.067Z,89.03
2022-08-22T03:42:36.463Z,89.61
2022-08-22T03:45:30.335Z,89.40
2022-08-22T03:48:44.775Z,88.92
2022-08-22T03:51:57.939Z,89.25
2022-08-22T03:54:49.065Z,88.69
2022-08-22T03:58:06.231Z,88.64
2022-08-22T04:01:11.723Z,89.17
2022-08-22T04:04:22.761Z,89.31
2022-08-22T04:07:03.499Z,88.73
2022-08-22T04:10:31.355Z,88.73
2022-08-22T04:13:24.978Z,88.94
2022-08-22T04:16:14.551Z,88.79
2022-08-22T04:19:51.271Z,88.55
2022-08-22T04:22:47.002Z,88.33
2022-08-22T04:25:36.063Z,88.23
2022-08-22T04:28:34.951Z,87.90
2022-08-22T04:31:18.206Z,86.67
2022-08-22T04:34:25.357Z,86.25
2022-08-22T04:37:04.074Z,85.83
2022-08-22T04:39:48.508Z,84.94
2022-08-22T04:42:33.518Z,84.28
2022-08-22T04:45:20.103Z,84.18
2022-08-22T04:48:19.753Z,83.90
2022-08-22T04:51:03.405Z,82.72
2022-08-22T04:53:49.866Z,82.01
2022-08-22T04:57:03.097Z,81.42
2022-08-22T04:59:33.591Z,81.13
2022-08-22T05:02:07.420Z,80.63
2022-08-22T05:04:48.590Z,79.91
2022-08-22T05:07:23.345Z,79.68
2022-08-22T05:10:11.843Z,79.61
2022-08-22T05:12:49.760Z,79.21
2022-08-22T05:15:29.001Z,78.71
2022-08-22T05:18:04.247Z,77.76
2022-08-22T05:20:35.005Z,77.18
2022-08-22T05:23:29.492Z,77.29
2022-08-22T05:26:06.094Z,77.04
2022-08-22T05:28:59.300Z,76.76
2022-08-22T05:31:37.005Z,76.38
2022-08-22T05:34:14.507Z,76.16
2022-08-22T05:36:54.781Z,75.55
2022-08-22T05:39:27.988Z,75.50
2022-08-22T05:42:01.279Z,75.14
2022-08-22T05:44:38.377Z,74.87
2022-08-22T05:47:43.124Z,74.89
2022-08-22T05:50:35.153Z,74.16
2022-08-22T05:53:18.496Z,73.82
2022-08-22T05:56:02.398Z,73.60
2022-08-22T05:58:46.394Z,72.83
2022-08-22T06:01:47.040Z,72.45
2022-08-22T06:04:58.253Z,72.18
2022-08-22T06:07:57.072Z,71.73
2022-08-22T06:10:41.143Z,71.52
2022-08-22T06:13:33.026Z,71.14
2022-08-22T06:16:52.068Z,70.60
2022-08-22T06:19:24.242Z,70.73
2022-08-22T06:21:55.537Z,70.34
2022-08-22T06:24:27.374Z,69.92
2022-08-22T06:27:10.306Z,69.92
2022-08-22T06:29:51.815Z,69.91
2022-08-22T06:32:58.505Z,69.20
2022-08-22T06:35:56.207Z,68.63
2022-08-22T06:38:35.289Z,67.88
2022-08-22T06:41:09.037Z,68.42
2022-08-22T06:43:43.817Z,67.91
2022-08-22T06:46:16.905Z,67.31
2022-08-22T06:48:46.510Z,66.69
2022-08-22T06:51:18.953Z,66.56
2022-08-22T06:53:53.872Z,65.83
2022-08-22T06:56:29.939Z,66.18
2022-08-22T06:59:03.639Z,66.43
2022-08-22T07:01:44.326Z,65.99
2022-08-22T07:04:18.505Z,65.02
2022-08-22T07:06:50.501Z,64.67
2022-08-22T07:09:34.860Z,65.00
2022-08-22T07:12:29.358Z,64.82
2022-08-22T07:15:22.539Z,63.93
2022-08-22T07:17:59.698Z,63.44
2022-08-22T07:20:35.205Z,63.04
2022-08-22T07:23:11.787Z,63.52
2022-08-22T07:26:12.961Z,63.46
2022-08-22T07:28:58.442Z,62.72
2022-08-22T07:32:01.477Z,61.26
2022-08-22T07:34:55.103Z,61.65
2022-08-22T07:37:48.026Z,62.18
2022-08-22T07:41:12.337Z,61.88
2022-08-22T07:44:18.066Z,61.25
2022-08-22T07:47:02.467Z,60.40
2022-08-22T07:49:53.033Z,59.79
2022-08-22T07:52:23.200Z,59.11
2022-08-22T07:54:58.110Z,58.10
2022-08-22T07:57:35.493Z,58.21
2022-08-22T08:00:26.738Z,58.34
2022-08-22T08:03:02.644Z,57.53
2022-08-22T08:05:34.530Z,57.50
2022-08-22T08:08:15.689Z,56.72
2022-08-22T08:10:45.276Z,56.12
2022-08-22T08:13:21.681Z,56.60
